sensor_id;sensor_type;location;lat;lon;timestamp;temperature;humidity
76104;HTU21D;64831;44.870;37.336;2023-01-04T00:01:56;10.97;75.76
76104;HTU21D;64831;44.870;37.336;2023-01-04T00:04:22;10.95;75.74
76104;HTU21D;64831;44.870;37.336;2023-01-04T00:06:48;10.90;75.74
76104;HTU21D;64831;44.870;37.336;2023-01-04T00:09:14;10.92;75.68
76104;HTU21D;64831;44.870;37.336;2023-01-04T00:11:39;10.89;75.52
76104;HTU21D;64831;44.870;37.336;2023-01-04T00:14:05;10.87;75.37
76104;HTU21D;64831;44.870;37.336;2023-01-04T00:16:31;10.87;75.47
76104;HTU21D;64831;44.870;37.336;2023-01-04T00:18:57;10.84;75.48
76104;HTU21D;64831;44.870;37.336;2023-01-04T00:21:28;10.79;75.60
76104;HTU21D;64831;44.870;37.336;2023-01-04T00:23:56;10.81;75.51
76104;HTU21D;64831;44.870;37.336;2023-01-04T00:26:24;10.85;75.47
76104;HTU21D;64831;44.870;37.336;2023-01-04T00:28:55;10.85;75.43
76104;HTU21D;64831;44.870;37.336;2023-01-04T00:31:22;10.88;75.38
76104;HTU21D;64831;44.870;37.336;2023-01-04T00:33:49;10.87;75.15
76104;HTU21D;64831;44.870;37.336;2023-01-04T00:36:16;10.86;75.04
76104;HTU21D;64831;44.870;37.336;2023-01-04T00:38:41;10.89;75.05
76104;HTU21D;64831;44.870;37.336;2023-01-04T00:41:09;10.89;74.85
76104;HTU21D;64831;44.870;37.336;2023-01-04T00:43:35;10.86;74.64
76104;HTU21D;64831;44.870;37.336;2023-01-04T00:46:01;10.85;74.54
76104;HTU21D;64831;44.870;37.336;2023-01-04T00:48:28;10.88;74.68
76104;HTU21D;64831;44.870;37.336;2023-01-04T00:50:55;10.85;74.33
76104;HTU21D;64831;44.870;37.336;2023-01-04T00:53:21;10.87;74.33
76104;HTU21D;64831;44.870;37.336;2023-01-04T00:55:47;10.85;74.13
76104;HTU21D;64831;44.870;37.336;2023-01-04T00:58:14;10.87;74.28
76104;HTU21D;64831;44.870;37.336;2023-01-04T01:00:40;10.84;74.15
76104;HTU21D;64831;44.870;37.336;2023-01-04T01:03:06;10.84;74.28
76104;HTU21D;64831;44.870;37.336;2023-01-04T01:05:33;10.87;74.44
76104;HTU21D;64831;44.870;37.336;2023-01-04T01:08:01;10.90;74.45
76104;HTU21D;64831;44.870;37.336;2023-01-04T01:10:47;10.89;74.43
76104;HTU21D;64831;44.870;37.336;2023-01-04T01:13:13;10.90;74.41
76104;HTU21D;64831;44.870;37.336;2023-01-04T01:15:39;10.93;74.41
76104;HTU21D;64831;44.870;37.336;2023-01-04T01:18:05;10.96;74.37
76104;HTU21D;64831;44.870;37.336;2023-01-04T01:20:32;10.96;74.12
76104;HTU21D;64831;44.870;37.336;2023-01-04T01:22:58;10.98;74.08
76104;HTU21D;64831;44.870;37.336;2023-01-04T01:25:24;10.95;73.72
76104;HTU21D;64831;44.870;37.336;2023-01-04T01:27:49;10.94;73.73
76104;HTU21D;64831;44.870;37.336;2023-01-04T01:30:15;10.93;73.74
76104;HTU21D;64831;44.870;37.336;2023-01-04T01:32:41;10.94;73.77
76104;HTU21D;64831;44.870;37.336;2023-01-04T01:35:07;10.95;73.83
76104;HTU21D;64831;44.870;37.336;2023-01-04T01:37:33;10.97;73.88
76104;HTU21D;64831;44.870;37.336;2023-01-04T01:39:59;10.97;73.84
76104;HTU21D;64831;44.870;37.336;2023-01-04T01:42:25;10.96;73.71
76104;HTU21D;64831;44.870;37.336;2023-01-04T01:44:58;10.93;73.73
76104;HTU21D;64831;44.870;37.336;2023-01-04T01:47:43;10.90;73.38
76104;HTU21D;64831;44.870;37.336;2023-01-04T01:52:44;10.90;73.67
76104;HTU21D;64831;44.870;37.336;2023-01-04T01:55:11;10.94;73.74
76104;HTU21D;64831;44.870;37.336;2023-01-04T01:57:37;10.94;73.67
76104;HTU21D;64831;44.870;37.336;2023-01-04T02:00:11;10.94;73.68
76104;HTU21D;64831;44.870;37.336;2023-01-04T02:03:12;10.96;73.65
76104;HTU21D;64831;44.870;37.336;2023-01-04T02:05:35;10.94;73.54
76104;HTU21D;64831;44.870;37.336;2023-01-04T02:08:02;10.93;73.57
76104;HTU21D;64831;44.870;37.336;2023-01-04T02:10:30;10.95;73.65
76104;HTU21D;64831;44.870;37.336;2023-01-04T02:12:57;10.93;73.71
76104;HTU21D;64831;44.870;37.336;2023-01-04T02:15:26;10.94;73.76
76104;HTU21D;64831;44.870;37.336;2023-01-04T02:18:02;10.96;73.79
76104;HTU21D;64831;44.870;37.336;2023-01-04T02:20:40;10.94;73.89
76104;HTU21D;64831;44.870;37.336;2023-01-04T02:40:25;10.94;73.92
76104;HTU21D;64831;44.870;37.336;2023-01-04T02:46:09;10.99;73.86
76104;HTU21D;64831;44.870;37.336;2023-01-04T02:48:38;10.98;73.73
76104;HTU21D;64831;44.870;37.336;2023-01-04T02:51:34;10.96;73.53
76104;HTU21D;64831;44.870;37.336;2023-01-04T02:54:14;10.96;73.42
76104;HTU21D;64831;44.870;37.336;2023-01-04T02:59:41;10.97;73.12
76104;HTU21D;64831;44.870;37.336;2023-01-04T03:05:12;11.01;73.22
76104;HTU21D;64831;44.870;37.336;2023-01-04T03:11:19;11.01;72.85
76104;HTU21D;64831;44.870;37.336;2023-01-04T03:13:39;11.02;72.93
76104;HTU21D;64831;44.870;37.336;2023-01-04T03:16:12;11.00;72.74
76104;HTU21D;64831;44.870;37.336;2023-01-04T03:18:44;11.00;72.55
76104;HTU21D;64831;44.870;37.336;2023-01-04T03:21:12;11.01;72.36
76104;HTU21D;64831;44.870;37.336;2023-01-04T03:23:39;11.02;72.39
76104;HTU21D;64831;44.870;37.336;2023-01-04T03:26:38;11.00;72.09
76104;HTU21D;64831;44.870;37.336;2023-01-04T03:32:29;11.00;71.91
76104;HTU21D;64831;44.870;37.336;2023-01-04T03:35:16;11.01;72.03
76104;HTU21D;64831;44.870;37.336;2023-01-04T03:40:40;11.01;71.87
76104;HTU21D;64831;44.870;37.336;2023-01-04T03:43:32;10.99;71.56
76104;HTU21D;64831;44.870;37.336;2023-01-04T03:46:31;11.01;71.57
76104;HTU21D;64831;44.870;37.336;2023-01-04T03:49:48;11.01;71.65
76104;HTU21D;64831;44.870;37.336;2023-01-04T03:52:15;11.00;71.65
76104;HTU21D;64831;44.870;37.336;2023-01-04T03:54:43;10.99;71.45
76104;HTU21D;64831;44.870;37.336;2023-01-04T03:57:12;11.00;71.31
76104;HTU21D;64831;44.870;37.336;2023-01-04T03:59:42;10.99;71.22
76104;HTU21D;64831;44.870;37.336;2023-01-04T04:02:11;10.95;70.58
76104;HTU21D;64831;44.870;37.336;2023-01-04T04:04:44;10.92;70.16
76104;HTU21D;64831;44.870;37.336;2023-01-04T04:07:29;10.90;70.40
76104;HTU21D;64831;44.870;37.336;2023-01-04T04:10:14;10.87;69.51
76104;HTU21D;64831;44.870;37.336;2023-01-04T04:12:40;10.87;69.96
76104;HTU21D;64831;44.870;37.336;2023-01-04T04:15:06;10.86;69.75
76104;HTU21D;64831;44.870;37.336;2023-01-04T04:17:32;10.83;69.81
76104;HTU21D;64831;44.870;37.336;2023-01-04T04:19:58;10.83;69.81
76104;HTU21D;64831;44.870;37.336;2023-01-04T04:22:24;10.83;69.82
76104;HTU21D;64831;44.870;37.336;2023-01-04T04:24:50;10.80;69.52
76104;HTU21D;64831;44.870;37.336;2023-01-04T08:05:22;9.74;76.97
76104;HTU21D;64831;44.870;37.336;2023-01-04T08:07:50;9.75;76.79
76104;HTU21D;64831;44.870;37.336;2023-01-04T08:10:16;9.74;76.91
76104;HTU21D;64831;44.870;37.336;2023-01-04T08:12:42;9.77;76.88
76104;HTU21D;64831;44.870;37.336;2023-01-04T08:15:08;9.81;77.02
76104;HTU21D;64831;44.870;37.336;2023-01-04T08:17:34;9.86;76.89
76104;HTU21D;64831;44.870;37.336;2023-01-04T08:20:00;9.90;76.82
76104;HTU21D;64831;44.870;37.336;2023-01-04T08:22:26;9.94;76.76
76104;HTU21D;64831;44.870;37.336;2023-01-04T08:24:52;9.98;76.70
76104;HTU21D;64831;44.870;37.336;2023-01-04T08:27:18;10.00;76.50
76104;HTU21D;64831;44.870;37.336;2023-01-04T08:29:44;10.01;76.41
76104;HTU21D;64831;44.870;37.336;2023-01-04T08:32:10;9.99;76.41
76104;HTU21D;64831;44.870;37.336;2023-01-04T08:34:35;10.04;76.10
76104;HTU21D;64831;44.870;37.336;2023-01-04T08:37:01;10.05;76.23
76104;HTU21D;64831;44.870;37.336;2023-01-04T08:39:27;10.03;76.31
76104;HTU21D;64831;44.870;37.336;2023-01-04T08:41:57;9.99;76.57
76104;HTU21D;64831;44.870;37.336;2023-01-04T08:44:24;9.97;76.53
76104;HTU21D;64831;44.870;37.336;2023-01-04T08:46:52;9.96;76.60
76104;HTU21D;64831;44.870;37.336;2023-01-04T08:49:19;9.97;76.50
76104;HTU21D;64831;44.870;37.336;2023-01-04T08:51:45;9.95;76.68
76104;HTU21D;64831;44.870;37.336;2023-01-04T08:54:12;9.96;76.89
76104;HTU21D;64831;44.870;37.336;2023-01-04T08:56:38;9.99;76.70
76104;HTU21D;64831;44.870;37.336;2023-01-04T08:59:05;10.01;76.48
76104;HTU21D;64831;44.870;37.336;2023-01-04T09:01:32;10.04;76.37
76104;HTU21D;64831;44.870;37.336;2023-01-04T09:03:59;10.06;76.55
76104;HTU21D;64831;44.870;37.336;2023-01-04T09:06:25;10.05;76.50
76104;HTU21D;64831;44.870;37.336;2023-01-04T09:08:51;10.06;76.43
76104;HTU21D;64831;44.870;37.336;2023-01-04T09:11:19;10.06;76.47
76104;HTU21D;64831;44.870;37.336;2023-01-04T09:13:45;10.05;76.53
76104;HTU21D;64831;44.870;37.336;2023-01-04T09:16:14;10.06;76.44
76104;HTU21D;64831;44.870;37.336;2023-01-04T09:18:41;10.07;76.28
76104;HTU21D;64831;44.870;37.336;2023-01-04T09:21:10;10.05;76.44
76104;HTU21D;64831;44.870;37.336;2023-01-04T09:23:36;10.01;76.50
76104;HTU21D;64831;44.870;37.336;2023-01-04T09:26:07;9.99;76.53
76104;HTU21D;64831;44.870;37.336;2023-01-04T09:28:33;9.98;76.59
76104;HTU21D;64831;44.870;37.336;2023-01-04T09:31:20;10.00;76.68
76104;HTU21D;64831;44.870;37.336;2023-01-04T09:33:47;9.98;76.60
76104;HTU21D;64831;44.870;37.336;2023-01-04T09:36:15;9.99;76.56
76104;HTU21D;64831;44.870;37.336;2023-01-04T09:38:41;9.99;76.58
76104;HTU21D;64831;44.870;37.336;2023-01-04T09:43:50;9.97;76.70
76104;HTU21D;64831;44.870;37.336;2023-01-04T09:46:31;9.95;76.70
76104;HTU21D;64831;44.870;37.336;2023-01-04T09:52:15;9.88;76.85
76104;HTU21D;64831;44.870;37.336;2023-01-04T09:55:22;9.88;76.90
76104;HTU21D;64831;44.870;37.336;2023-01-04T09:57:52;9.84;76.95
76104;HTU21D;64831;44.870;37.336;2023-01-04T10:00:44;9.86;76.86
76104;HTU21D;64831;44.870;37.336;2023-01-04T10:03:18;9.85;76.86
76104;HTU21D;64831;44.870;37.336;2023-01-04T10:05:45;9.84;76.89
76104;HTU21D;64831;44.870;37.336;2023-01-04T10:08:15;9.84;76.68
76104;HTU21D;64831;44.870;37.336;2023-01-04T14:35:05;8.48;75.96
76104;HTU21D;64831;44.870;37.336;2023-01-04T14:37:35;8.49;75.89
76104;HTU21D;64831;44.870;37.336;2023-01-04T14:40:12;8.49;75.83
76104;HTU21D;64831;44.870;37.336;2023-01-04T14:42:38;8.45;76.24
76104;HTU21D;64831;44.870;37.336;2023-01-04T14:45:11;8.42;76.41
76104;HTU21D;64831;44.870;37.336;2023-01-04T14:47:38;8.37;76.66
76104;HTU21D;64831;44.870;37.336;2023-01-04T14:50:04;8.34;76.72
76104;HTU21D;64831;44.870;37.336;2023-01-04T14:52:30;8.30;76.97
76104;HTU21D;64831;44.870;37.336;2023-01-04T14:54:56;8.24;76.94
76104;HTU21D;64831;44.870;37.336;2023-01-04T14:57:22;8.20;76.95
76104;HTU21D;64831;44.870;37.336;2023-01-04T14:59:48;8.17;76.82
76104;HTU21D;64831;44.870;37.336;2023-01-04T15:02:14;8.16;76.96
76104;HTU21D;64831;44.870;37.336;2023-01-04T15:04:40;8.11;77.12
76104;HTU21D;64831;44.870;37.336;2023-01-04T15:07:05;8.06;77.21
76104;HTU21D;64831;44.870;37.336;2023-01-04T15:09:31;8.03;77.26
76104;HTU21D;64831;44.870;37.336;2023-01-04T15:11:57;7.99;77.37
76104;HTU21D;64831;44.870;37.336;2023-01-04T15:14:23;8.00;77.24
76104;HTU21D;64831;44.870;37.336;2023-01-04T15:16:50;7.97;77.38
76104;HTU21D;64831;44.870;37.336;2023-01-04T15:19:16;7.91;77.37
76104;HTU21D;64831;44.870;37.336;2023-01-04T15:21:42;7.89;77.15
76104;HTU21D;64831;44.870;37.336;2023-01-04T15:24:08;7.83;77.24
76104;HTU21D;64831;44.870;37.336;2023-01-04T15:26:35;7.78;76.95
76104;HTU21D;64831;44.870;37.336;2023-01-04T15:29:01;7.71;76.91
76104;HTU21D;64831;44.870;37.336;2023-01-04T15:31:27;7.64;77.05
76104;HTU21D;64831;44.870;37.336;2023-01-04T15:33:53;7.55;77.39
76104;HTU21D;64831;44.870;37.336;2023-01-04T15:36:19;7.49;77.46
76104;HTU21D;64831;44.870;37.336;2023-01-04T15:38:45;7.46;77.31
76104;HTU21D;64831;44.870;37.336;2023-01-04T15:41:14;7.45;77.47
76104;HTU21D;64831;44.870;37.336;2023-01-04T15:44:01;7.41;77.50
76104;HTU21D;64831;44.870;37.336;2023-01-04T15:46:27;7.39;77.50
76104;HTU21D;64831;44.870;37.336;2023-01-04T15:48:53;7.37;77.56
76104;HTU21D;64831;44.870;37.336;2023-01-04T15:51:19;7.33;77.50
76104;HTU21D;64831;44.870;37.336;2023-01-04T15:53:49;7.29;77.46
76104;HTU21D;64831;44.870;37.336;2023-01-04T15:56:16;7.24;77.63
76104;HTU21D;64831;44.870;37.336;2023-01-04T15:58:42;7.17;77.75
76104;HTU21D;64831;44.870;37.336;2023-01-04T16:01:10;7.15;77.66
76104;HTU21D;64831;44.870;37.336;2023-01-04T16:03:36;7.13;77.59
76104;HTU21D;64831;44.870;37.336;2023-01-04T16:06:08;7.12;77.66
76104;HTU21D;64831;44.870;37.336;2023-01-04T16:08:34;7.11;77.78
76104;HTU21D;64831;44.870;37.336;2023-01-04T16:11:12;7.09;77.73
76104;HTU21D;64831;44.870;37.336;2023-01-04T16:13:38;7.07;77.53
76104;HTU21D;64831;44.870;37.336;2023-01-04T16:16:05;7.04;77.40
76104;HTU21D;64831;44.870;37.336;2023-01-04T16:18:34;7.01;77.25
76104;HTU21D;64831;44.870;37.336;2023-01-04T16:21:00;6.95;77.34
76104;HTU21D;64831;44.870;37.336;2023-01-04T16:23:26;6.91;77.32
76104;HTU21D;64831;44.870;37.336;2023-01-04T16:26:07;6.87;77.34
76104;HTU21D;64831;44.870;37.336;2023-01-04T16:28:34;6.83;77.33
76104;HTU21D;64831;44.870;37.336;2023-01-04T16:31:00;6.79;77.31
76104;HTU21D;64831;44.870;37.336;2023-01-04T16:33:27;6.76;77.32
76104;HTU21D;64831;44.870;37.336;2023-01-04T16:38:29;6.71;77.43
76104;HTU21D;64831;44.870;37.336;2023-01-04T16:40:57;6.69;77.43
76104;HTU21D;64831;44.870;37.336;2023-01-04T16:43:23;6.67;77.37
76104;HTU21D;64831;44.870;37.336;2023-01-04T16:45:49;6.67;77.31
76104;HTU21D;64831;44.870;37.336;2023-01-04T16:48:15;6.63;77.24
76104;HTU21D;64831;44.870;37.336;2023-01-04T16:50:41;6.63;77.11
76104;HTU21D;64831;44.870;37.336;2023-01-04T16:53:07;6.60;77.15
76104;HTU21D;64831;44.870;37.336;2023-01-04T16:55:33;6.58;77.15
76104;HTU21D;64831;44.870;37.336;2023-01-04T16:57:59;6.55;77.19
76104;HTU21D;64831;44.870;37.336;2023-01-04T17:00:25;6.53;77.19
76104;HTU21D;64831;44.870;37.336;2023-01-04T17:02:50;6.53;77.20
76104;HTU21D;64831;44.870;37.336;2023-01-04T17:05:16;6.51;77.08
76104;HTU21D;64831;44.870;37.336;2023-01-04T17:07:42;6.49;77.11
76104;HTU21D;64831;44.870;37.336;2023-01-04T17:10:08;6.46;77.32
76104;HTU21D;64831;44.870;37.336;2023-01-04T17:12:34;6.44;77.26
76104;HTU21D;64831;44.870;37.336;2023-01-04T17:15:00;6.44;77.35
76104;HTU21D;64831;44.870;37.336;2023-01-04T17:17:26;6.43;77.28
76104;HTU21D;64831;44.870;37.336;2023-01-04T17:19:52;6.42;77.37
76104;HTU21D;64831;44.870;37.336;2023-01-04T17:22:19;6.40;77.44
76104;HTU21D;64831;44.870;37.336;2023-01-04T17:24:45;6.40;77.42
76104;HTU21D;64831;44.870;37.336;2023-01-04T17:27:11;6.40;77.35
76104;HTU21D;64831;44.870;37.336;2023-01-04T17:29:36;6.38;77.48
76104;HTU21D;64831;44.870;37.336;2023-01-04T17:32:02;6.36;77.38
76104;HTU21D;64831;44.870;37.336;2023-01-04T17:34:28;6.31;77.51
76104;HTU21D;64831;44.870;37.336;2023-01-04T17:36:54;6.27;77.59
76104;HTU21D;64831;44.870;37.336;2023-01-04T17:39:20;6.24;77.66
76104;HTU21D;64831;44.870;37.336;2023-01-04T17:41:47;6.22;77.62
76104;HTU21D;64831;44.870;37.336;2023-01-04T17:44:13;6.17;77.89
76104;HTU21D;64831;44.870;37.336;2023-01-04T17:46:39;6.15;77.92
76104;HTU21D;64831;44.870;37.336;2023-01-04T17:49:07;6.12;77.98
76104;HTU21D;64831;44.870;37.336;2023-01-04T17:51:33;6.10;78.00
76104;HTU21D;64831;44.870;37.336;2023-01-04T17:54:01;6.04;78.05
76104;HTU21D;64831;44.870;37.336;2023-01-04T17:56:28;6.00;77.96
76104;HTU21D;64831;44.870;37.336;2023-01-04T17:58:59;5.95;78.05
76104;HTU21D;64831;44.870;37.336;2023-01-04T18:01:26;5.91;78.24
76104;HTU21D;64831;44.870;37.336;2023-01-04T18:03:55;5.86;78.46
76104;HTU21D;64831;44.870;37.336;2023-01-04T18:06:23;5.83;78.57
76104;HTU21D;64831;44.870;37.336;2023-01-04T18:08:52;5.81;78.63
76104;HTU21D;64831;44.870;37.336;2023-01-04T18:11:18;5.81;78.34
76104;HTU21D;64831;44.870;37.336;2023-01-04T18:13:44;5.80;78.27
76104;HTU21D;64831;44.870;37.336;2023-01-04T18:16:19;5.79;78.42
76104;HTU21D;64831;44.870;37.336;2023-01-04T18:18:45;5.79;78.21
76104;HTU21D;64831;44.870;37.336;2023-01-04T18:21:16;5.80;78.08
76104;HTU21D;64831;44.870;37.336;2023-01-04T18:23:45;5.79;78.40
76104;HTU21D;64831;44.870;37.336;2023-01-04T18:26:12;5.81;78.18
76104;HTU21D;64831;44.870;37.336;2023-01-04T18:28:38;5.82;78.25
76104;HTU21D;64831;44.870;37.336;2023-01-04T18:31:15;5.82;78.16
76104;HTU21D;64831;44.870;37.336;2023-01-04T18:33:42;5.81;78.18
76104;HTU21D;64831;44.870;37.336;2023-01-04T18:36:09;5.80;77.98
76104;HTU21D;64831;44.870;37.336;2023-01-04T18:38:36;5.80;77.93
76104;HTU21D;64831;44.870;37.336;2023-01-04T18:41:08;5.77;77.95
76104;HTU21D;64831;44.870;37.336;2023-01-04T18:43:35;5.76;77.81
76104;HTU21D;64831;44.870;37.336;2023-01-04T18:46:08;5.72;77.93
76104;HTU21D;64831;44.870;37.336;2023-01-04T18:48:35;5.71;77.89
76104;HTU21D;64831;44.870;37.336;2023-01-04T18:51:09;5.69;78.27
76104;HTU21D;64831;44.870;37.336;2023-01-04T18:53:36;5.72;78.37
76104;HTU21D;64831;44.870;37.336;2023-01-04T18:56:05;5.76;78.27
76104;HTU21D;64831;44.870;37.336;2023-01-04T18:58:33;5.79;78.29
76104;HTU21D;64831;44.870;37.336;2023-01-04T19:01:04;5.81;78.37
76104;HTU21D;64831;44.870;37.336;2023-01-04T19:03:32;5.85;78.38
76104;HTU21D;64831;44.870;37.336;2023-01-04T19:06:11;5.89;78.27
76104;HTU21D;64831;44.870;37.336;2023-01-04T19:08:38;5.91;78.26
76104;HTU21D;64831;44.870;37.336;2023-01-04T19:11:04;5.92;78.22
76104;HTU21D;64831;44.870;37.336;2023-01-04T19:13:31;5.94;78.11
76104;HTU21D;64831;44.870;37.336;2023-01-04T19:15:57;5.94;78.01
76104;HTU21D;64831;44.870;37.336;2023-01-04T19:18:27;5.94;77.95
76104;HTU21D;64831;44.870;37.336;2023-01-04T19:20:53;5.91;78.18
76104;HTU21D;64831;44.870;37.336;2023-01-04T19:23:20;5.90;78.01
76104;HTU21D;64831;44.870;37.336;2023-01-04T19:25:46;5.87;77.87
76104;HTU21D;64831;44.870;37.336;2023-01-04T19:28:12;5.85;77.84
76104;HTU21D;64831;44.870;37.336;2023-01-04T19:30:40;5.80;77.84
76104;HTU21D;64831;44.870;37.336;2023-01-04T19:33:06;5.76;77.82
76104;HTU21D;64831;44.870;37.336;2023-01-04T19:35:33;5.72;77.77
76104;HTU21D;64831;44.870;37.336;2023-01-04T19:37:59;5.66;77.95
76104;HTU21D;64831;44.870;37.336;2023-01-04T19:40:25;5.63;78.18
76104;HTU21D;64831;44.870;37.336;2023-01-04T19:42:51;5.57;78.11
76104;HTU21D;64831;44.870;37.336;2023-01-04T19:45:18;5.55;78.17
76104;HTU21D;64831;44.870;37.336;2023-01-04T19:47:44;5.53;78.01
76104;HTU21D;64831;44.870;37.336;2023-01-04T19:50:10;5.50;78.17
76104;HTU21D;64831;44.870;37.336;2023-01-04T19:52:37;5.47;78.25
76104;HTU21D;64831;44.870;37.336;2023-01-04T19:55:04;5.42;78.42
76104;HTU21D;64831;44.870;37.336;2023-01-04T19:57:30;5.39;78.72
76104;HTU21D;64831;44.870;37.336;2023-01-04T19:59:56;5.39;78.66
76104;HTU21D;64831;44.870;37.336;2023-01-04T20:02:22;5.37;78.59
76104;HTU21D;64831;44.870;37.336;2023-01-04T20:04:48;5.34;78.85
76104;HTU21D;64831;44.870;37.336;2023-01-04T20:07:14;5.31;78.85
76104;HTU21D;64831;44.870;37.336;2023-01-04T20:09:40;5.26;79.04
76104;HTU21D;64831;44.870;37.336;2023-01-04T20:12:06;5.24;79.05
76104;HTU21D;64831;44.870;37.336;2023-01-04T20:14:33;5.22;78.95
76104;HTU21D;64831;44.870;37.336;2023-01-04T20:16:59;5.20;79.02
76104;HTU21D;64831;44.870;37.336;2023-01-04T20:19:25;5.18;78.89
76104;HTU21D;64831;44.870;37.336;2023-01-04T20:21:51;5.17;78.75
76104;HTU21D;64831;44.870;37.336;2023-01-04T20:24:17;5.15;78.63
76104;HTU21D;64831;44.870;37.336;2023-01-04T20:26:43;5.11;78.92
76104;HTU21D;64831;44.870;37.336;2023-01-04T20:29:11;5.09;78.96
76104;HTU21D;64831;44.870;37.336;2023-01-04T20:31:37;5.07;79.17
76104;HTU21D;64831;44.870;37.336;2023-01-04T20:34:03;5.07;79.18
76104;HTU21D;64831;44.870;37.336;2023-01-04T20:36:29;5.06;79.15
76104;HTU21D;64831;44.870;37.336;2023-01-04T20:38:56;5.06;79.08
76104;HTU21D;64831;44.870;37.336;2023-01-04T20:41:24;5.07;78.91
76104;HTU21D;64831;44.870;37.336;2023-01-04T20:43:51;5.07;78.89
76104;HTU21D;64831;44.870;37.336;2023-01-04T20:46:20;5.05;78.79
76104;HTU21D;64831;44.870;37.336;2023-01-04T20:48:46;5.03;78.72
76104;HTU21D;64831;44.870;37.336;2023-01-04T20:51:18;5.01;78.73
76104;HTU21D;64831;44.870;37.336;2023-01-04T20:53:44;4.97;78.88
76104;HTU21D;64831;44.870;37.336;2023-01-04T20:56:18;4.96;78.84
76104;HTU21D;64831;44.870;37.336;2023-01-04T20:58:45;4.96;78.69
76104;HTU21D;64831;44.870;37.336;2023-01-04T21:01:12;4.93;78.69
76104;HTU21D;64831;44.870;37.336;2023-01-04T21:03:39;4.93;78.88
76104;HTU21D;64831;44.870;37.336;2023-01-04T21:06:07;4.95;78.85
76104;HTU21D;64831;44.870;37.336;2023-01-04T21:08:37;4.93;78.87
76104;HTU21D;64831;44.870;37.336;2023-01-04T21:11:04;4.94;78.69
76104;HTU21D;64831;44.870;37.336;2023-01-04T21:13:31;4.96;78.59
76104;HTU21D;64831;44.870;37.336;2023-01-04T21:15:57;4.96;78.53
76104;HTU21D;64831;44.870;37.336;2023-01-04T21:18:24;4.96;78.57
76104;HTU21D;64831;44.870;37.336;2023-01-04T21:20:50;4.98;78.47
76104;HTU21D;64831;44.870;37.336;2023-01-04T21:23:18;4.96;78.60
76104;HTU21D;64831;44.870;37.336;2023-01-04T21:25:44;4.96;78.54
76104;HTU21D;64831;44.870;37.336;2023-01-04T21:28:11;4.96;78.43
76104;HTU21D;64831;44.870;37.336;2023-01-04T21:30:39;4.96;78.43
76104;HTU21D;64831;44.870;37.336;2023-01-04T21:33:05;4.93;78.34
76104;HTU21D;64831;44.870;37.336;2023-01-04T21:35:32;4.91;78.25
76104;HTU21D;64831;44.870;37.336;2023-01-04T21:37:57;4.90;78.21
76104;HTU21D;64831;44.870;37.336;2023-01-04T21:40:23;4.88;78.24
76104;HTU21D;64831;44.870;37.336;2023-01-04T21:42:50;4.88;78.12
76104;HTU21D;64831;44.870;37.336;2023-01-04T21:45:16;4.84;78.05
76104;HTU21D;64831;44.870;37.336;2023-01-04T21:47:42;4.83;78.01
76104;HTU21D;64831;44.870;37.336;2023-01-04T21:50:08;4.81;77.97
76104;HTU21D;64831;44.870;37.336;2023-01-04T21:52:34;4.82;77.94
76104;HTU21D;64831;44.870;37.336;2023-01-04T21:55:00;4.80;77.85
76104;HTU21D;64831;44.870;37.336;2023-01-04T21:57:26;4.77;77.82
76104;HTU21D;64831;44.870;37.336;2023-01-04T21:59:52;4.77;77.76
76104;HTU21D;64831;44.870;37.336;2023-01-04T22:02:19;4.74;77.76
76104;HTU21D;64831;44.870;37.336;2023-01-04T22:04:45;4.69;77.86
76104;HTU21D;64831;44.870;37.336;2023-01-04T22:07:11;4.67;77.89
76104;HTU21D;64831;44.870;37.336;2023-01-04T22:09:37;4.62;77.94
76104;HTU21D;64831;44.870;37.336;2023-01-04T22:12:03;4.59;78.01
76104;HTU21D;64831;44.870;37.336;2023-01-04T22:14:33;4.58;78.01
76104;HTU21D;64831;44.870;37.336;2023-01-04T22:16:59;4.56;78.00
76104;HTU21D;64831;44.870;37.336;2023-01-04T22:19:25;4.53;78.05
76104;HTU21D;64831;44.870;37.336;2023-01-04T22:21:51;4.52;78.04
76104;HTU21D;64831;44.870;37.336;2023-01-04T22:24:17;4.50;78.02
76104;HTU21D;64831;44.870;37.336;2023-01-04T22:26:43;4.50;78.05
76104;HTU21D;64831;44.870;37.336;2023-01-04T22:29:11;4.52;78.10
76104;HTU21D;64831;44.870;37.336;2023-01-04T22:31:37;4.54;78.07
76104;HTU21D;64831;44.870;37.336;2023-01-04T22:34:03;4.57;77.92
76104;HTU21D;64831;44.870;37.336;2023-01-04T22:36:29;4.58;77.76
76104;HTU21D;64831;44.870;37.336;2023-01-04T22:38:56;4.58;77.72
76104;HTU21D;64831;44.870;37.336;2023-01-04T22:41:24;4.56;77.64
76104;HTU21D;64831;44.870;37.336;2023-01-04T22:44:00;4.57;77.56
76104;HTU21D;64831;44.870;37.336;2023-01-04T22:46:28;4.52;77.59
76104;HTU21D;64831;44.870;37.336;2023-01-04T22:48:55;4.52;77.63
76104;HTU21D;64831;44.870;37.336;2023-01-04T22:51:21;4.52;77.59
76104;HTU21D;64831;44.870;37.336;2023-01-04T22:53:48;4.51;77.50
76104;HTU21D;64831;44.870;37.336;2023-01-04T22:56:17;4.50;77.33
76104;HTU21D;64831;44.870;37.336;2023-01-04T22:58:43;4.48;77.23
76104;HTU21D;64831;44.870;37.336;2023-01-04T23:01:09;4.43;77.11
76104;HTU21D;64831;44.870;37.336;2023-01-04T23:03:37;4.38;77.12
76104;HTU21D;64831;44.870;37.336;2023-01-04T23:06:09;4.37;77.22
76104;HTU21D;64831;44.870;37.336;2023-01-04T23:08:35;4.34;77.26
76104;HTU21D;64831;44.870;37.336;2023-01-04T23:11:14;4.32;77.24
76104;HTU21D;64831;44.870;37.336;2023-01-04T23:13:40;4.30;77.12
76104;HTU21D;64831;44.870;37.336;2023-01-04T23:16:09;4.27;77.23
76104;HTU21D;64831;44.870;37.336;2023-01-04T23:18:35;4.27;77.16
76104;HTU21D;64831;44.870;37.336;2023-01-04T23:21:02;4.26;77.21
76104;HTU21D;64831;44.870;37.336;2023-01-04T23:23:29;4.23;77.10
76104;HTU21D;64831;44.870;37.336;2023-01-04T23:25:56;4.22;77.10
76104;HTU21D;64831;44.870;37.336;2023-01-04T23:28:22;4.20;77.02
76104;HTU21D;64831;44.870;37.336;2023-01-04T23:30:48;4.18;76.95
76104;HTU21D;64831;44.870;37.336;2023-01-04T23:33:14;4.17;76.91
76104;HTU21D;64831;44.870;37.336;2023-01-04T23:35:40;4.16;76.87
76104;HTU21D;64831;44.870;37.336;2023-01-04T23:38:06;4.15;76.76
76104;HTU21D;64831;44.870;37.336;2023-01-04T23:40:32;4.15;76.82
76104;HTU21D;64831;44.870;37.336;2023-01-04T23:42:59;4.12;76.77
76104;HTU21D;64831;44.870;37.336;2023-01-04T23:45:25;4.10;76.73
76104;HTU21D;64831;44.870;37.336;2023-01-04T23:47:52;4.09;76.79
76104;HTU21D;64831;44.870;37.336;2023-01-04T23:50:18;4.08;76.74
76104;HTU21D;64831;44.870;37.336;2023-01-04T23:52:44;4.07;76.77
76104;HTU21D;64831;44.870;37.336;2023-01-04T23:55:09;4.07;76.75
76104;HTU21D;64831;44.870;37.336;2023-01-04T23:57:36;4.10;76.68
